Nearby METAR Reports

EGNX - East Midlands, United Kingdom
Distance: S 18mi, 28km
Updated: 20/09/2019 15:20
Clear
Clear
 Wind from ESE
Wind: ESE 13 mph , 20 km/h
Temperature: 20°C
Dew Point: 12°C
Humidity: 60%
Barometer: 1024 hPa
Summary: Clear
Visibility: greater than 7 miles , 10 km
2019/09/20 14:20 EGNX 201420Z 11011KT CAVOK 20/12 Q1024
EGCN - Doncaster Sheffi, United Kingdom
Distance: NNE 31mi, 50km
Updated: 20/09/2019 15:20
Clear
Clear
 Wind from SE
Wind: SE 9 mph , 15 km/h
Temperature: 20°C
Dew Point: 12°C
Humidity: 60%
Barometer: 1025 hPa
Summary: Clear
Visibility: greater than 7 miles , 10 km
2019/09/20 14:20 EGCN 201420Z 13008KT CAVOK 20/12 Q1025
EGYE - Barkston Heath R, United Kingdom
Distance: ESE 31mi, 50km
Updated: 20/09/2019 14:50
Clear
Clear
 Wind from ESE
Wind: ESE 12 mph , 19 km/h
Barometer: 1025 hPa
Summary: Clear
Visibility: greater than 7 miles , 10 km
2019/09/20 13:50 EGYE 201350Z 11010KT CAVOK ///// Q1025 RMK BLU
 
EGXW - Waddington Raf, United Kingdom
Distance: ENE 33mi, 53km
Updated: 20/09/2019 15:22
Partly cloudy
Partly cloudy
 Wind from SE
Wind: SE 13 mph , 20 km/h
Temperature: 20°C
Dew Point: 12°C
Humidity: 60%
Barometer: 1025 hPa
Clouds: Partly cloudy
Visibility: 6 miles , 10 km
Cloud details: Few Clouds 762 m
Partly cloudy 7620 m
2019/09/20 14:22 EGXW 201422Z 14011KT 9999 FEW025 SCT250 20/12 Q1025 NOSIG RMK BLU BLU
EGYD - Cranwell Raf, United Kingdom
Distance: E 33mi, 53km
Updated: 20/09/2019 15:24
Mostly cloudy
Mostly cloudy
 Wind from SE
Wind: SE 14 mph , 22 km/h
Temperature: 19°C
Dew Point: 12°C
Humidity: 64%
Barometer: 1025 hPa
Clouds: Mostly cloudy
Visibility: 6 miles , 10 km
Cloud details: Few Clouds 853 m
Mostly cloudy 7620 m
2019/09/20 14:24 EGYD 201424Z 13012KT 9999 FEW028 BKN250 19/12 Q1025 NOSIG RMK BLU BLU
EGXP - Scampton Raf, United Kingdom
Distance: ENE 35mi, 56km
Updated: 20/09/2019 14:50
Clear
Clear
 Wind from SE
Wind: SE 10 mph , 17 km/h
Temperature: 19°C
Dew Point: 12°C
Humidity: 64%
Barometer: 1025 hPa
Clouds: Clear
Visibility: 6 miles , 10 km
2019/09/20 13:50 EGXP 201350Z AUTO 14009KT 9999 // NCD 19/12 Q1025
 
EGCC - Manchester Intl, United Kingdom
Distance: WNW 45mi, 72km
Updated: 20/09/2019 15:20
Clear
Clear
 Wind from varies
Wind: varies 6 mph , 9 km/h
Temperature: 21°C
Dew Point: 13°C
Humidity: 60%
Barometer: 1023 hPa
Clouds: Clear
Visibility: 6 miles , 10 km
2019/09/20 14:20 EGCC 201420Z AUTO VRB05KT 9999 NCD 21/13 Q1023 NOSIG
EGBB - Birmingham Airpo, United Kingdom
Distance: SSW 46mi, 74km
Updated: 20/09/2019 15:20
Clear
Clear
 Wind from ESE
Wind: ESE 13 mph , 20 km/h
Temperature: 20°C
Dew Point: 11°C
Humidity: 56%
Barometer: 1023 hPa
Summary: Clear
Visibility: greater than 7 miles , 10 km
2019/09/20 14:20 EGBB 201420Z 12011KT 070V150 CAVOK 20/11 Q1023
EGXC - Coningsby Raf, United Kingdom
Distance: E 47mi, 75km
Updated: 20/09/2019 15:20
Partly cloudy
Partly cloudy
 Wind from ESE
Wind: ESE 13 mph , 20 km/h
Temperature: 19°C
Dew Point: 12°C
Humidity: 64%
Barometer: 1025 hPa
Clouds: Partly cloudy
Visibility: 6 miles , 10 km
Cloud details: Few Clouds 853 m
Partly cloudy 9144 m
2019/09/20 14:20 EGXC 201420Z 12011KT 9999 FEW028 SCT300 19/12 Q1025 NOSIG RMK BLU BLU
 
EGXT - Wittering Raf, United Kingdom
Distance: SE 47mi, 75km
Updated: 20/09/2019 15:20
Clear
Clear
 Wind from E
Wind: E 13 mph , 20 km/h
Temperature: 20°C
Dew Point: 11°C
Humidity: 56%
Barometer: 1024 hPa
Summary: Clear
Visibility: greater than 7 miles , 10 km
2019/09/20 14:20 EGXT 201420Z 10011KT CAVOK 20/11 Q1024 RMK BLU
EGNJ - Humberside, United Kingdom
Distance: NE 52mi, 83km
Updated: 20/09/2019 15:20
Few Clouds
Few Clouds
 Wind from SE
Wind: SE 9 mph , 15 km/h
Temperature: 21°C
Dew Point: 13°C
Humidity: 60%
Barometer: 1025 hPa
Clouds: Few Clouds
Visibility: 6 miles , 10 km
Cloud details: Few Clouds 1067 m
2019/09/20 14:20 EGNJ 201420Z 13008KT 110V170 9999 FEW035 21/13 Q1025
EGWC - Cosford Raf, United Kingdom
Distance: SW 52mi, 83km
Updated: 17/09/2019 15:50
NOT Current
Few Clouds
Few Clouds
 Wind from N
Wind: N 10 mph , 17 km/h
Temperature: 16°C
Dew Point: 6°C
Humidity: 52%
Barometer: 1027 hPa
Clouds: Few Clouds
Visibility: 6 miles , 10 km
Cloud details: Few Clouds 1067 m
2019/09/17 14:50 EGWC 171450Z 36009KT 9999 FEW035 16/06 Q1027 RMK BLU
 
EGNM - Leeds And Bradfo, United Kingdom
Distance: NNW 57mi, 91km
Updated: 20/09/2019 15:20
Clear
Clear
 Wind from SE
Wind: SE 13 mph , 20 km/h
Temperature: 20°C
Dew Point: 11°C
Humidity: 56%
Barometer: 1024 hPa
Summary: Clear
Visibility: greater than 7 miles , 10 km
2019/09/20 14:20 EGNM 201420Z 13011KT CAVOK 20/11 Q1024
EGOS - Shawbury Raf, United Kingdom
Distance: WSW 60mi, 97km
Updated: 20/09/2019 15:20
Clear
Clear
 Wind from ESE
Wind: ESE 13 mph , 20 km/h
Temperature: 21°C
Dew Point: 11°C
Humidity: 53%
Barometer: 1022 hPa
Summary: Clear
Visibility: greater than 7 miles , 10 km
2019/09/20 14:20 EGOS 201420Z 11011KT CAVOK 21/11 Q1022 NOSIG RMK BLU BLU
EGYH - Holbeach (aut), United Kingdom
Distance: ESE 62mi, 99km
Updated: 20/09/2019 10:50
NOT Current
Partly cloudy
Partly cloudy
 Wind from SSE
Wind: SSE 9 mph , 15 km/h
Temperature: 18°C
Dew Point: 13°C
Humidity: 73%
Barometer: 1028 hPa
Clouds: Partly cloudy
Visibility: 6 miles , 10 km
Cloud details: Partly cloudy 1067 m
2019/09/20 09:50 EGYH 200950Z 16008KT 9999 SCT035 18/13 Q1028 RMK BLU
 
EGXV - Leconfield (aut), United Kingdom
Distance: NNE 65mi, 105km
Updated: 20/09/2019 14:50
Clear
Clear
 Wind from SE
Wind: SE 8 mph , 13 km/h
Temperature: 21°C
Dew Point: 12°C
Humidity: 57%
Barometer: 1025 hPa
Clouds: Clear
Visibility: 6 miles , 10 km
2019/09/20 13:50 EGXV 201350Z AUTO 14007KT 9999 NCD 21/12 Q1025
EGXS - Donna Nook Raf, United Kingdom
Distance: ENE 66mi, 106km
Updated: 20/09/2019 14:50
Clear
Clear
 Wind from ESE
Wind: ESE 14 mph , 22 km/h
Temperature: 18°C
Dew Point: 13°C
Humidity: 73%
Barometer: 1026 hPa
Clouds: Clear
Visibility: 6 miles , 10 km
2019/09/20 13:50 EGXS 201350Z AUTO 11012KT 9999 // NCD 18/13 Q1026
EGGP - Liverpool Airpor, United Kingdom
Distance: WNW 67mi, 107km
Updated: 20/09/2019 15:20
Clear
Clear
 Wind from ESE
Wind: ESE 13 mph , 20 km/h
Temperature: 21°C
Dew Point: 14°C
Humidity: 64%
Barometer: 1022 hPa
Summary: Clear
Visibility: greater than 7 miles , 10 km
2019/09/20 14:20 EGGP 201420Z 12011KT 090V160 CAVOK 21/14 Q1022
 
EGXU - Linton-On-Ouse R, United Kingdom
Distance: N 68mi, 109km
Updated: 20/09/2019 15:20
Clear
Clear
 Wind from SSE
Wind: SSE 10 mph , 17 km/h
Temperature: 21°C
Dew Point: 11°C
Humidity: 53%
Barometer: 1024 hPa
Summary: Clear
Visibility: greater than 7 miles , 10 km
2019/09/20 14:20 EGXU 201420Z 15009KT CAVOK 21/11 Q1024 NOSIG RMK BLU BLU
EGNR - Hawarden (aut), United Kingdom
Distance: W 70mi, 112km
Updated: 20/09/2019 15:20
Clear
Clear
 Wind from ESE
Wind: ESE 14 mph , 22 km/h
Temperature: 21°C
Dew Point: 13°C
Humidity: 60%
Barometer: 1022 hPa
Summary: Clear
Visibility: greater than 7 miles , 10 km
2019/09/20 14:20 EGNR 201420Z 12012KT CAVOK 21/13 Q1022